Preview of NWS' New Version of Forecast
This preview is not operational and should not be used for support decisions.

Terminal Aerodrome Forecast (TAF)

Issued by National Weather Service (NWS)

                            
000
FTUS42 KCAE 181248 AAA
TAFOGB
TAF AMD
KOGB 181248Z 1813/1912 00000KT 5SM BR BKN007
      TEMPO 1813/1815 3SM BR BKN005
     FM181500 24005KT P6SM BKN015
     FM181600 19005KT P6SM SCT050
     FM190000 VRB03KT P6SM BKN150=